Kincaid, Kansas
Current Conditions -  °F | °C
As of 2:52 AM on Friday 28 Nov 2014 (Local Time) from KCNU Reporting Station
Clear Clear  
Wind Chill: -5°   Ceiling: Unl
Heat Index:   Visibility: 10mi
Dew Point: -3°   Wind: 13mph
Humidity: 79%   Direction: 150°SSE
Pressure: 30.16"   Gusts: NA
Location:  38.08°N, 95.15°W
Report Text: KCNU 280852Z AUTO 15011KT 10SM CLR 00/M03 A3016 RMK AO2 SLP220 T00001033 58022
Loading
Personal Weather Stations






























Interactive Weather Map New forecast layout! Learn more

10-Day Weather Forecast

Advertisements
Track Severe Weather on mobile